sensor_id;sensor_type;location;lat;lon;timestamp;pressure;altitude;pressure_sealevel;temperature;humidity
6425;BME280;12193;42.642;23.384;2022-10-03T03:08:56;94412.31;;;10.71;100.00
6425;BME280;12193;42.642;23.384;2022-10-03T03:11:55;94399.78;;;10.36;100.00
6425;BME280;12193;42.642;23.384;2022-10-03T03:17:37;94402.22;;;10.18;100.00
6425;BME280;12193;42.642;23.384;2022-10-03T03:20:20;94398.19;;;10.22;100.00
6425;BME280;12193;42.642;23.384;2022-10-03T03:23:10;94402.78;;;10.33;100.00
6425;BME280;12193;42.642;23.384;2022-10-03T03:26:02;94408.59;;;10.29;100.00
6425;BME280;12193;42.642;23.384;2022-10-03T03:28:39;94400.38;;;10.32;100.00
6425;BME280;12193;42.642;23.384;2022-10-03T03:31:16;94396.97;;;10.44;100.00
6425;BME280;12193;42.642;23.384;2022-10-03T03:34:02;94391.59;;;10.45;100.00
6425;BME280;12193;42.642;23.384;2022-10-03T03:36:37;94392.78;;;10.49;100.00
6425;BME280;12193;42.642;23.384;2022-10-03T03:39:22;94394.97;;;10.59;100.00
6425;BME280;12193;42.642;23.384;2022-10-03T03:42:15;94396.38;;;10.42;100.00
6425;BME280;12193;42.642;23.384;2022-10-03T03:45:11;94391.94;;;10.55;100.00
6425;BME280;12193;42.642;23.384;2022-10-03T03:47:57;94381.75;;;10.60;100.00
6425;BME280;12193;42.642;23.384;2022-10-03T03:50:44;94393.53;;;10.69;100.00
6425;BME280;12193;42.642;23.384;2022-10-03T03:53:32;94380.53;;;10.63;100.00
6425;BME280;12193;42.642;23.384;2022-10-03T03:56:20;94381.97;;;10.52;100.00
6425;BME280;12193;42.642;23.384;2022-10-03T03:59:07;94379.34;;;10.65;100.00
6425;BME280;12193;42.642;23.384;2022-10-03T04:01:47;94369.50;;;10.80;100.00
6425;BME280;12193;42.642;23.384;2022-10-03T04:04:43;94369.13;;;10.70;100.00
6425;BME280;12193;42.642;23.384;2022-10-03T04:07:24;94368.72;;;10.73;100.00
6425;BME280;12193;42.642;23.384;2022-10-03T04:10:15;94369.28;;;10.82;100.00
6425;BME280;12193;42.642;23.384;2022-10-03T04:13:02;94369.50;;;10.80;100.00
6425;BME280;12193;42.642;23.384;2022-10-03T04:16:01;94370.06;;;10.89;100.00
6425;BME280;12193;42.642;23.384;2022-10-03T04:18:47;94367.69;;;10.87;100.00
6425;BME280;12193;42.642;23.384;2022-10-03T04:21:39;94365.53;;;10.78;100.00
6425;BME280;12193;42.642;23.384;2022-10-03T04:27:27;94367.94;;;10.73;100.00
6425;BME280;12193;42.642;23.384;2022-10-03T04:30:07;94361.72;;;10.74;100.00
6425;BME280;12193;42.642;23.384;2022-10-03T04:33:15;94367.38;;;10.58;100.00
6425;BME280;12193;42.642;23.384;2022-10-03T04:36:19;94369.94;;;10.71;100.00
6425;BME280;12193;42.642;23.384;2022-10-03T04:39:00;94372.50;;;10.77;100.00
6425;BME280;12193;42.642;23.384;2022-10-03T04:41:40;94369.28;;;10.82;100.00
6425;BME280;12193;42.642;23.384;2022-10-03T04:44:25;94366.66;;;10.95;100.00
6425;BME280;12193;42.642;23.384;2022-10-03T04:47:01;94365.81;;;11.01;100.00
6425;BME280;12193;42.642;23.384;2022-10-03T04:49:42;94352.81;;;11.07;100.00
6425;BME280;12193;42.642;23.384;2022-10-03T04:52:18;94362.34;;;11.20;100.00
6425;BME280;12193;42.642;23.384;2022-10-03T04:54:56;94366.09;;;11.30;100.00
6425;BME280;12193;42.642;23.384;2022-10-03T04:57:34;94366.28;;;11.29;100.00
6425;BME280;12193;42.642;23.384;2022-10-03T05:00:19;94362.22;;;11.39;100.00
6425;BME280;12193;42.642;23.384;2022-10-03T05:02:54;94356.25;;;11.38;100.00
6425;BME280;12193;42.642;23.384;2022-10-03T05:05:57;94373.25;;;11.41;100.00
6425;BME280;12193;42.642;23.384;2022-10-03T05:08:33;94359.22;;;11.42;100.00
6425;BME280;12193;42.642;23.384;2022-10-03T05:11:13;94362.03;;;11.40;100.00
6425;BME280;12193;42.642;23.384;2022-10-03T05:13:56;94375.38;;;11.57;100.00
6425;BME280;12193;42.642;23.384;2022-10-03T05:16:36;94364.38;;;11.55;100.00
6425;BME280;12193;42.642;23.384;2022-10-03T05:19:44;94379.22;;;11.41;100.00
6425;BME280;12193;42.642;23.384;2022-10-03T05:22:37;94369.59;;;11.48;100.00
6425;BME280;12193;42.642;23.384;2022-10-03T05:25:20;94372.53;;;11.21;100.00
6425;BME280;12193;42.642;23.384;2022-10-03T05:28:03;94371.59;;;11.46;100.00
6425;BME280;12193;42.642;23.384;2022-10-03T05:30:40;94374.00;;;11.54;100.00
6425;BME280;12193;42.642;23.384;2022-10-03T05:33:18;94370.78;;;11.52;100.00
6425;BME280;12193;42.642;23.384;2022-10-03T05:36:08;94367.47;;;11.33;100.00
6425;BME280;12193;42.642;23.384;2022-10-03T05:41:49;94357.16;;;10.69;100.00
6425;BME280;12193;42.642;23.384;2022-10-03T05:44:29;94344.34;;;10.68;100.00
6425;BME280;12193;42.642;23.384;2022-10-03T05:47:08;94334.72;;;10.75;100.00
6425;BME280;12193;42.642;23.384;2022-10-03T05:50:13;94332.13;;;10.75;100.00
6425;BME280;12193;42.642;23.384;2022-10-03T05:52:58;94339.72;;;10.76;100.00
6425;BME280;12193;42.642;23.384;2022-10-03T05:55:36;94350.34;;;11.12;100.00
6425;BME280;12193;42.642;23.384;2022-10-03T05:58:27;94347.75;;;11.49;100.00
6425;BME280;12193;42.642;23.384;2022-10-03T06:01:14;94349.09;;;12.14;100.00
6425;BME280;12193;42.642;23.384;2022-10-03T06:03:59;94352.91;;;12.78;100.00
6425;BME280;12193;42.642;23.384;2022-10-03T06:06:38;94360.59;;;12.91;100.00
6425;BME280;12193;42.642;23.384;2022-10-03T06:09:40;94353.66;;;13.03;100.00
6425;BME280;12193;42.642;23.384;2022-10-03T06:12:19;94362.31;;;12.79;100.00
6425;BME280;12193;42.642;23.384;2022-10-03T06:15:22;94366.53;;;12.80;100.00
6425;BME280;12193;42.642;23.384;2022-10-03T06:18:02;94374.72;;;12.83;100.00
6425;BME280;12193;42.642;23.384;2022-10-03T06:21:10;94369.91;;;12.80;100.00
6425;BME280;12193;42.642;23.384;2022-10-03T06:24:10;94369.75;;;12.75;100.00
6425;BME280;12193;42.642;23.384;2022-10-03T06:30:11;94369.59;;;13.13;100.00
6425;BME280;12193;42.642;23.384;2022-10-03T06:36:26;94384.44;;;13.59;100.00
6425;BME280;12193;42.642;23.384;2022-10-03T06:42:20;94377.13;;;13.79;97.58
6425;BME280;12193;42.642;23.384;2022-10-03T06:45:26;94383.63;;;13.88;99.01
6425;BME280;12193;42.642;23.384;2022-10-03T06:51:33;94387.84;;;13.13;100.00
6425;BME280;12193;42.642;23.384;2022-10-03T06:54:35;94392.31;;;12.88;100.00
6425;BME280;12193;42.642;23.384;2022-10-03T06:57:23;94395.53;;;12.90;100.00
6425;BME280;12193;42.642;23.384;2022-10-03T07:00:10;94396.53;;;13.07;100.00
6425;BME280;12193;42.642;23.384;2022-10-03T07:03:19;94396.34;;;13.08;100.00
6425;BME280;12193;42.642;23.384;2022-10-03T07:06:09;94403.50;;;13.13;100.00
6425;BME280;12193;42.642;23.384;2022-10-03T07:09:09;94407.78;;;13.25;100.00
6425;BME280;12193;42.642;23.384;2022-10-03T07:12:12;94417.44;;;13.25;100.00
6425;BME280;12193;42.642;23.384;2022-10-03T07:15:12;94429.44;;;13.26;100.00
6425;BME280;12193;42.642;23.384;2022-10-03T07:18:01;94437.66;;;13.11;100.00
6425;BME280;12193;42.642;23.384;2022-10-03T07:21:03;94444.81;;;12.98;100.00
6425;BME280;12193;42.642;23.384;2022-10-03T07:24:16;94452.66;;;12.98;100.00
6425;BME280;12193;42.642;23.384;2022-10-03T07:27:07;94458.97;;;12.90;100.00
6425;BME280;12193;42.642;23.384;2022-10-03T07:30:03;94470.28;;;12.78;100.00
6425;BME280;12193;42.642;23.384;2022-10-03T07:35:39;94484.00;;;12.67;100.00
6425;BME280;12193;42.642;23.384;2022-10-03T07:38:49;94473.47;;;12.31;100.00
6425;BME280;12193;42.642;23.384;2022-10-03T07:42:02;94478.47;;;12.33;100.00
6425;BME280;12193;42.642;23.384;2022-10-03T07:45:09;94483.31;;;11.98;100.00
6425;BME280;12193;42.642;23.384;2022-10-03T07:48:05;94494.00;;;12.15;100.00
6425;BME280;12193;42.642;23.384;2022-10-03T07:51:04;94490.94;;;12.24;100.00
6425;BME280;12193;42.642;23.384;2022-10-03T08:00:07;94479.00;;;12.41;100.00
6425;BME280;12193;42.642;23.384;2022-10-03T08:03:00;94482.56;;;12.46;100.00
6425;BME280;12193;42.642;23.384;2022-10-03T08:05:46;94485.66;;;12.61;100.00
6425;BME280;12193;42.642;23.384;2022-10-03T08:11:31;94487.72;;;12.77;100.00
6425;BME280;12193;42.642;23.384;2022-10-03T08:14:16;94490.06;;;12.85;100.00
6425;BME280;12193;42.642;23.384;2022-10-03T08:17:19;94486.09;;;12.83;100.00
6425;BME280;12193;42.642;23.384;2022-10-03T08:20:13;94494.00;;;12.94;100.00
6425;BME280;12193;42.642;23.384;2022-10-03T08:22:59;94497.59;;;13.00;100.00
6425;BME280;12193;42.642;23.384;2022-10-03T08:25:47;94498.97;;;13.02;100.00
6425;BME280;12193;42.642;23.384;2022-10-03T08:28:45;94498.38;;;13.00;100.00
6425;BME280;12193;42.642;23.384;2022-10-03T08:44:18;94492.66;;;13.81;100.00
